Adana, Turkey
Current Conditions -  °F | °C
As of 3:20 PM on Sunday 23 Nov 2014 (Local Time) from LTAF Reporting Station
Clear Clear  
Wind Chill: 68°   Ceiling: Unl
Heat Index: 68°   Visibility: 6mi
Dew Point: 32°   Wind: 6mph
Humidity: 26%   Direction: 50°NE
Pressure: 29.94"   Gusts: NA
Location:  36.82°N, 34.6°E
Report Text: LTAF 231220Z 05005KT 360V090 CAVOK 20/M00 Q1014 NOSIG
Loading
Personal Weather Stations






























Interactive Weather Map New forecast layout! Learn more

10-Day Weather Forecast

Advertisements
Track Severe Weather on mobile